createdAt,value
2022-11-16T00:01:28.693Z,5.43
2022-11-16T00:03:56.552Z,5.85
2022-11-16T00:06:23.778Z,5.93
2022-11-16T00:09:13.081Z,5.63
2022-11-16T00:11:40.027Z,5.28
2022-11-16T00:14:07.192Z,6.03
2022-11-16T00:16:34.152Z,6.10
2022-11-16T00:19:03.397Z,6.03
2022-11-16T00:21:30.902Z,5.47
2022-11-16T00:23:57.533Z,6.50
2022-11-16T00:26:24.090Z,6.07
2022-11-16T00:28:52.595Z,5.75
2022-11-16T00:31:19.421Z,5.78
2022-11-16T00:33:46.001Z,5.87
2022-11-16T00:36:13.626Z,5.70
2022-11-16T00:38:41.134Z,5.55
2022-11-16T00:41:08.932Z,5.78
2022-11-16T00:43:36.144Z,5.70
2022-11-16T00:46:03.631Z,6.13
2022-11-16T00:48:30.512Z,6.03
2022-11-16T00:50:56.980Z,5.95
2022-11-16T00:53:23.391Z,6.75
2022-11-16T00:55:49.760Z,6.22
2022-11-16T00:58:16.253Z,5.70
2022-11-16T01:00:43.106Z,6.63
2022-11-16T01:03:09.621Z,6.47
2022-11-16T01:05:36.064Z,5.90
2022-11-16T01:08:02.420Z,5.97
2022-11-16T01:10:28.821Z,6.17
2022-11-16T01:12:56.013Z,6.38
2022-11-16T01:15:24.994Z,6.43
2022-11-16T01:17:52.723Z,6.28
2022-11-16T01:20:24.414Z,6.38
2022-11-16T01:22:51.210Z,5.70
2022-11-16T01:25:17.829Z,6.28
2022-11-16T01:27:44.521Z,6.63
2022-11-16T01:30:13.723Z,5.32
2022-11-16T01:32:40.345Z,6.18
2022-11-16T01:35:07.524Z,5.70
2022-11-16T01:37:34.124Z,5.90
2022-11-16T01:40:00.510Z,5.10
2022-11-16T01:42:29.419Z,6.07
2022-11-16T01:45:01.011Z,5.90
2022-11-16T01:47:28.342Z,6.47
2022-11-16T01:50:01.839Z,5.28
2022-11-16T01:52:32.833Z,5.43
2022-11-16T01:54:59.497Z,6.10
2022-11-16T01:57:36.006Z,5.93
2022-11-16T02:00:05.921Z,5.17
2022-11-16T02:02:32.637Z,5.80
2022-11-16T02:05:00.285Z,5.60
2022-11-16T02:08:00.396Z,5.90
2022-11-16T02:11:16.097Z,4.82
2022-11-16T02:14:01.560Z,5.67
2022-11-16T02:17:02.653Z,4.88
2022-11-16T02:19:58.933Z,5.43
2022-11-16T02:22:48.767Z,5.18
2022-11-16T02:25:33.842Z,5.25
2022-11-16T02:28:18.323Z,5.03
2022-11-16T02:30:48.190Z,4.95
2022-11-16T02:33:20.295Z,4.95
2022-11-16T02:35:55.070Z,4.75
2022-11-16T02:38:25.838Z,4.80
2022-11-16T02:40:55.966Z,4.90
2022-11-16T02:43:28.492Z,5.22
2022-11-16T02:45:59.505Z,5.57
2022-11-16T02:48:34.524Z,4.68
2022-11-16T02:51:03.230Z,4.80
2022-11-16T02:53:36.890Z,5.30
2022-11-16T02:56:03.467Z,4.22
2022-11-16T02:58:29.998Z,4.22
2022-11-16T03:01:05.739Z,4.88
2022-11-16T03:03:39.668Z,4.65
2022-11-16T03:06:13.556Z,4.57
2022-11-16T03:08:44.846Z,4.45
2022-11-16T03:11:30.400Z,4.97
2022-11-16T03:14:01.782Z,4.53
2022-11-16T03:16:32.907Z,4.32
2022-11-16T03:19:02.802Z,4.57
2022-11-16T03:21:39.739Z,4.13
2022-11-16T03:24:07.562Z,5.22
2022-11-16T03:27:05.467Z,4.95
2022-11-16T03:29:39.738Z,4.65
2022-11-16T03:32:17.060Z,4.27
2022-11-16T03:34:52.735Z,4.28
2022-11-16T03:37:21.916Z,4.47
2022-11-16T03:39:49.620Z,4.22
2022-11-16T03:42:17.123Z,4.10
2022-11-16T03:44:46.382Z,4.03
2022-11-16T03:47:13.468Z,3.70
2022-11-16T03:49:45.376Z,3.38
2022-11-16T03:52:12.695Z,4.20
2022-11-16T03:54:39.025Z,3.75
2022-11-16T03:57:05.385Z,4.00
2022-11-16T03:59:31.730Z,4.60
2022-11-16T04:01:58.129Z,4.07
2022-11-16T04:04:43.011Z,4.72
2022-11-16T04:07:28.552Z,4.28
2022-11-16T04:10:13.496Z,8.03
2022-11-16T04:13:02.251Z,4.15
2022-11-16T04:15:47.148Z,4.55
2022-11-16T04:18:32.373Z,4.25
2022-11-16T04:21:18.141Z,3.78
2022-11-16T04:24:05.029Z,3.97
2022-11-16T04:26:50.317Z,3.75
2022-11-16T04:29:16.758Z,3.50
2022-11-16T04:32:01.834Z,3.63
2022-11-16T04:34:46.739Z,3.50
2022-11-16T04:37:33.994Z,3.37
2022-11-16T04:40:00.328Z,3.70
2022-11-16T04:42:26.676Z,4.03
2022-11-16T04:45:11.681Z,3.15
2022-11-16T04:47:38.047Z,3.10
2022-11-16T04:50:05.186Z,3.10
2022-11-16T04:52:31.528Z,2.78
2022-11-16T04:54:58.004Z,2.75
2022-11-16T04:57:24.436Z,2.20
2022-11-16T04:59:50.774Z,2.28
2022-11-16T05:02:17.239Z,2.83
2022-11-16T05:04:44.423Z,2.47
2022-11-16T05:07:14.015Z,2.60
2022-11-16T05:09:43.030Z,2.72
2022-11-16T05:12:11.572Z,2.03
2022-11-16T05:14:37.914Z,1.90
2022-11-16T05:17:04.364Z,2.10
2022-11-16T05:19:49.607Z,2.00
2022-11-16T05:22:15.940Z,2.45
2022-11-16T05:24:42.363Z,2.17
2022-11-16T05:27:11.396Z,2.80
2022-11-16T05:29:37.812Z,2.83
2022-11-16T05:32:05.541Z,2.33
2022-11-16T05:34:32.334Z,2.42
2022-11-16T05:36:59.334Z,3.00
2022-11-16T05:39:26.307Z,2.77
2022-11-16T05:41:53.408Z,2.97
2022-11-16T05:44:19.826Z,2.58
2022-11-16T05:46:46.487Z,2.92
2022-11-16T05:49:13.642Z,2.65
2022-11-16T05:51:42.257Z,2.80
2022-11-16T05:54:11.625Z,2.50
2022-11-16T05:56:38.384Z,2.97
2022-11-16T05:59:05.838Z,3.20
2022-11-16T06:01:32.512Z,3.25
2022-11-16T06:04:00.565Z,4.13
2022-11-16T06:06:27.836Z,3.47
2022-11-16T06:08:54.835Z,3.60
2022-11-16T06:11:21.613Z,3.90
2022-11-16T06:13:48.195Z,3.70
2022-11-16T06:16:14.623Z,4.07
2022-11-16T06:18:43.252Z,3.83
2022-11-16T06:21:10.718Z,3.30
2022-11-16T06:23:37.454Z,3.97
2022-11-16T06:26:04.903Z,4.80
2022-11-16T06:28:32.038Z,4.93
2022-11-16T06:30:58.617Z,5.43
2022-11-16T06:33:27.608Z,4.32
2022-11-16T06:35:56.004Z,5.43
2022-11-16T06:38:23.301Z,5.55
2022-11-16T06:40:52.059Z,5.63
2022-11-16T06:43:19.316Z,5.28
2022-11-16T06:45:53.383Z,5.65
2022-11-16T06:48:20.578Z,5.60
2022-11-16T06:50:51.796Z,6.47
2022-11-16T06:53:18.826Z,5.60
2022-11-16T06:55:45.221Z,6.03
2022-11-16T06:58:11.927Z,7.00
2022-11-16T07:00:38.325Z,6.60
2022-11-16T07:03:04.882Z,5.68
2022-11-16T07:05:32.295Z,6.57
2022-11-16T07:07:58.864Z,4.97
2022-11-16T07:10:26.029Z,6.65
2022-11-16T07:12:52.399Z,6.97
2022-11-16T07:15:19.443Z,6.13
2022-11-16T07:17:46.119Z,5.87
2022-11-16T07:20:12.467Z,5.75
2022-11-16T07:22:38.820Z,5.07
2022-11-16T07:25:05.770Z,4.80
2022-11-16T07:27:32.162Z,4.80
2022-11-16T07:29:58.501Z,4.43
2022-11-16T07:32:24.877Z,4.70
2022-11-16T07:34:51.257Z,4.00
2022-11-16T07:37:17.601Z,3.65
2022-11-16T07:39:44.004Z,3.42
2022-11-16T07:42:12.044Z,3.00
2022-11-16T07:44:39.213Z,2.70
2022-11-16T07:47:06.239Z,2.58
2022-11-16T07:49:32.592Z,2.60
2022-11-16T07:51:59.115Z,3.30
2022-11-16T07:54:25.526Z,2.60
2022-11-16T07:56:52.151Z,2.42
2022-11-16T07:59:18.571Z,2.45
2022-11-16T08:01:47.255Z,1.83
2022-11-16T08:04:15.383Z,2.88
2022-11-16T08:06:43.242Z,1.60
2022-11-16T08:09:10.045Z,2.13
2022-11-16T08:11:36.443Z,1.67
2022-11-16T08:14:02.843Z,1.42
2022-11-16T08:16:29.303Z,1.80
2022-11-16T08:18:55.799Z,1.27
2022-11-16T08:21:22.165Z,1.40
2022-11-16T08:23:50.691Z,1.20
2022-11-16T08:26:21.982Z,1.35
2022-11-16T08:28:51.193Z,1.30
2022-11-16T08:31:20.968Z,1.57
2022-11-16T08:33:48.059Z,1.20
2022-11-16T08:36:17.759Z,0.90
2022-11-16T08:38:49.234Z,1.08
2022-11-16T08:41:16.895Z,1.23
2022-11-16T08:43:44.547Z,0.93
2022-11-16T08:46:11.342Z,1.27
2022-11-16T08:48:38.199Z,1.60
2022-11-16T08:51:22.260Z,1.85
2022-11-16T08:53:49.780Z,1.90
2022-11-16T08:56:18.118Z,1.27
2022-11-16T08:58:46.968Z,1.40
2022-11-16T09:01:19.172Z,1.60
2022-11-16T09:03:45.726Z,1.30
2022-11-16T09:06:12.986Z,1.83
2022-11-16T09:08:41.064Z,1.93
2022-11-16T09:11:09.325Z,1.35
2022-11-16T09:13:35.853Z,1.40
2022-11-16T09:16:02.779Z,1.45
2022-11-16T09:18:29.673Z,1.55
2022-11-16T09:20:56.353Z,1.30
2022-11-16T09:23:25.476Z,1.27
2022-11-16T09:25:52.780Z,0.90
2022-11-16T09:28:19.780Z,0.95
2022-11-16T09:30:48.047Z,1.35
2022-11-16T09:33:14.474Z,1.00
2022-11-16T09:35:40.912Z,1.25
2022-11-16T09:38:09.736Z,0.95
2022-11-16T09:40:43.952Z,1.15
2022-11-16T09:43:40.885Z,1.30
2022-11-16T09:46:25.635Z,1.00
2022-11-16T09:48:56.316Z,1.10
2022-11-16T09:51:26.333Z,1.27
2022-11-16T09:54:02.430Z,0.90
2022-11-16T09:56:33.274Z,0.68
2022-11-16T09:59:14.998Z,0.90
2022-11-16T10:01:50.408Z,0.75
2022-11-16T10:04:37.034Z,0.80
2022-11-16T10:07:08.735Z,1.08
2022-11-16T10:09:36.056Z,1.25
2022-11-16T10:12:02.361Z,0.80
2022-11-16T10:14:41.522Z,1.02
2022-11-16T10:17:47.025Z,1.02
2022-11-16T10:20:44.549Z,0.82
2022-11-16T10:23:30.829Z,0.55
2022-11-16T10:26:13.467Z,0.60
2022-11-16T10:28:49.124Z,0.60
2022-11-16T10:31:57.205Z,1.00
2022-11-16T10:34:28.804Z,0.90
2022-11-16T10:37:03.154Z,0.80
2022-11-16T10:39:32.158Z,0.50
2022-11-16T10:42:07.401Z,0.57
2022-11-16T10:44:53.293Z,0.75
2022-11-16T10:47:29.369Z,0.47
2022-11-16T10:50:01.159Z,0.47
2022-11-16T10:52:28.100Z,1.33
2022-11-16T10:54:54.613Z,0.40
2022-11-16T10:57:23.685Z,0.65
2022-11-16T10:59:55.998Z,0.52
2022-11-16T11:02:31.202Z,1.10
2022-11-16T11:05:16.314Z,0.70
2022-11-16T11:07:49.142Z,0.70
2022-11-16T11:10:33.421Z,1.23
2022-11-16T11:13:20.914Z,0.50
2022-11-16T11:15:48.069Z,0.63
2022-11-16T11:18:23.543Z,0.70
2022-11-16T11:20:52.378Z,0.80
2022-11-16T11:23:21.528Z,1.00
2022-11-16T11:25:55.533Z,0.70
2022-11-16T11:28:28.416Z,0.70
2022-11-16T11:31:22.511Z,0.83
2022-11-16T11:33:52.428Z,0.90
2022-11-16T11:36:22.562Z,0.60
2022-11-16T11:39:07.707Z,0.45
2022-11-16T11:41:42.634Z,0.52
2022-11-16T11:44:17.043Z,0.50
2022-11-16T11:47:35.168Z,0.80
2022-11-16T11:49:42.305Z,0.70
2022-11-16T11:52:22.956Z,0.50
2022-11-16T11:54:52.159Z,0.52
2022-11-16T11:57:23.117Z,0.60
2022-11-16T11:59:53.013Z,0.63
2022-11-16T12:02:25.593Z,0.55
2022-11-16T12:05:28.601Z,0.40
2022-11-16T12:08:43.159Z,0.57
2022-11-16T12:11:28.326Z,0.50
2022-11-16T12:14:21.636Z,0.50
2022-11-16T12:17:14.512Z,0.40
2022-11-16T12:19:57.209Z,0.75
2022-11-16T12:22:41.885Z,0.82
2022-11-16T12:25:11.189Z,0.57
2022-11-16T12:27:37.534Z,0.52
2022-11-16T12:30:14.805Z,0.60
2022-11-16T12:32:53.853Z,0.80
2022-11-16T12:35:41.429Z,0.80
2022-11-16T12:38:26.402Z,0.50
2022-11-16T12:41:28.767Z,0.60
2022-11-16T12:44:07.916Z,0.38
2022-11-16T12:46:40.347Z,0.75
2022-11-16T12:49:35.593Z,0.90
2022-11-16T12:52:42.933Z,0.80
2022-11-16T12:55:37.246Z,0.40
2022-11-16T12:58:49.202Z,0.60
2022-11-16T13:01:29.537Z,0.40
2022-11-16T13:04:05.515Z,0.80
2022-11-16T13:06:41.127Z,0.30
2022-11-16T13:09:16.179Z,0.40
2022-11-16T13:11:47.832Z,0.57
2022-11-16T13:14:18.842Z,0.50
2022-11-16T13:16:47.317Z,0.50
2022-11-16T13:19:16.278Z,0.50
2022-11-16T13:22:07.475Z,0.28
2022-11-16T13:24:55.449Z,0.32
2022-11-16T13:27:37.369Z,1.15
2022-11-16T13:30:27.857Z,0.32
2022-11-16T13:33:26.669Z,0.20
2022-11-16T13:35:53.106Z,0.20
2022-11-16T13:38:52.454Z,0.82
2022-11-16T13:41:42.682Z,0.40
2022-11-16T13:44:20.135Z,0.30
2022-11-16T13:47:04.758Z,0.40
2022-11-16T13:49:51.038Z,0.38
2022-11-16T13:52:23.779Z,0.30
2022-11-16T13:54:55.436Z,0.40
2022-11-16T13:57:23.864Z,0.40
2022-11-16T14:00:12.035Z,0.40
2022-11-16T14:02:40.936Z,0.77
2022-11-16T14:05:13.218Z,0.30
2022-11-16T14:07:43.093Z,0.40
2022-11-16T14:10:11.834Z,0.50
2022-11-16T14:12:38.207Z,0.73
2022-11-16T14:15:13.797Z,0.45
2022-11-16T14:18:03.204Z,0.22
2022-11-16T14:20:41.733Z,0.60
2022-11-16T14:23:46.510Z,0.60
2022-11-16T14:26:22.217Z,0.40
2022-11-16T14:29:07.956Z,0.47
2022-11-16T14:31:48.820Z,0.82
2022-11-16T14:34:22.247Z,0.30
2022-11-16T14:36:50.023Z,0.40
2022-11-16T14:39:37.470Z,0.20
2022-11-16T14:42:14.808Z,0.40
2022-11-16T14:44:42.987Z,0.50
2022-11-16T14:47:39.018Z,0.30
2022-11-16T14:50:18.529Z,0.50
2022-11-16T14:52:48.555Z,0.30
2022-11-16T14:55:20.838Z,0.65
2022-11-16T14:57:47.485Z,0.45
2022-11-16T15:00:17.415Z,0.38
2022-11-16T15:02:52.052Z,0.20
2022-11-16T15:05:22.056Z,0.40
2022-11-16T15:07:52.826Z,0.25
2022-11-16T15:10:25.285Z,0.40
2022-11-16T15:12:53.702Z,0.50
2022-11-16T15:15:28.775Z,0.70
2022-11-16T15:18:05.650Z,0.50
2022-11-16T15:20:34.723Z,0.75
2022-11-16T15:23:03.072Z,0.77
2022-11-16T15:25:43.571Z,0.85
2022-11-16T15:28:17.086Z,1.10
2022-11-16T15:30:48.239Z,0.90
2022-11-16T15:33:45.208Z,0.80
2022-11-16T15:36:38.028Z,0.80
2022-11-16T15:39:09.686Z,0.52
2022-11-16T15:41:38.469Z,0.88
2022-11-16T15:44:14.997Z,1.03
2022-11-16T15:46:45.413Z,0.98
2022-11-16T15:49:22.970Z,1.05
2022-11-16T15:51:49.360Z,1.63
2022-11-16T15:54:25.357Z,2.10
2022-11-16T15:56:55.825Z,1.93
2022-11-16T15:59:29.840Z,1.92
2022-11-16T16:01:56.762Z,1.55
2022-11-16T16:04:23.585Z,1.58
2022-11-16T16:06:58.553Z,1.35
2022-11-16T16:09:31.098Z,1.37
2022-11-16T16:12:17.084Z,1.38
2022-11-16T16:14:44.513Z,1.60
2022-11-16T16:17:21.017Z,1.40
2022-11-16T16:20:00.957Z,1.00
2022-11-16T16:22:33.410Z,1.33
2022-11-16T16:25:01.499Z,1.20
2022-11-16T16:27:30.249Z,1.05
2022-11-16T16:29:58.515Z,1.58
2022-11-16T16:32:26.764Z,1.77
2022-11-16T16:35:05.166Z,2.83
2022-11-16T16:37:33.581Z,3.40
2022-11-16T16:40:00.235Z,2.63
2022-11-16T16:42:27.267Z,1.25
2022-11-16T16:44:53.655Z,1.38
2022-11-16T16:47:20.717Z,1.20
2022-11-16T16:49:48.161Z,1.48
2022-11-16T16:52:14.501Z,1.58
2022-11-16T16:54:41.498Z,1.65
2022-11-16T16:57:13.199Z,1.08
2022-11-16T16:59:40.248Z,0.90
2022-11-16T17:02:06.635Z,1.40
2022-11-16T17:04:32.985Z,1.40
2022-11-16T17:06:59.386Z,0.70
2022-11-16T17:09:25.754Z,1.00
2022-11-16T17:11:52.179Z,0.80
2022-11-16T17:14:19.804Z,0.85
2022-11-16T17:16:46.137Z,1.10
2022-11-16T17:19:13.824Z,1.08
2022-11-16T17:21:40.342Z,1.17
2022-11-16T17:24:06.805Z,1.10
2022-11-16T17:26:33.208Z,1.23
2022-11-16T17:28:59.678Z,1.00
2022-11-16T17:31:27.829Z,1.25
2022-11-16T17:33:57.417Z,1.10
2022-11-16T17:36:23.861Z,1.10
2022-11-16T17:38:50.278Z,1.73
2022-11-16T17:41:18.996Z,1.42
2022-11-16T17:43:46.401Z,1.30
2022-11-16T17:46:24.824Z,1.55
2022-11-16T17:48:51.991Z,1.40
2022-11-16T17:51:20.701Z,1.60
2022-11-16T17:53:47.371Z,1.10
2022-11-16T17:56:15.696Z,0.82
2022-11-16T17:58:42.613Z,1.35
2022-11-16T18:01:09.065Z,1.20
2022-11-16T18:03:36.742Z,1.08
2022-11-16T18:06:08.744Z,1.00
2022-11-16T18:08:36.259Z,1.30
2022-11-16T18:11:05.018Z,0.85
2022-11-16T18:13:31.587Z,0.97
2022-11-16T18:16:06.911Z,1.40
2022-11-16T18:18:34.205Z,1.88
2022-11-16T18:21:01.029Z,0.90
2022-11-16T18:23:28.613Z,1.48
2022-11-16T18:25:55.601Z,1.20
2022-11-16T18:28:22.551Z,1.27
2022-11-16T18:30:48.912Z,1.48
2022-11-16T18:33:16.438Z,1.45
2022-11-16T18:35:43.446Z,1.60
2022-11-16T18:38:13.023Z,1.30
2022-11-16T18:40:40.231Z,0.93
2022-11-16T18:43:11.453Z,1.10
2022-11-16T18:45:38.106Z,0.90
2022-11-16T18:48:04.711Z,0.88
2022-11-16T18:50:31.065Z,1.43
2022-11-16T18:52:57.589Z,1.10
2022-11-16T18:55:23.913Z,1.33
2022-11-16T18:57:50.241Z,1.10
2022-11-16T19:00:19.099Z,1.27
2022-11-16T19:02:45.458Z,0.97
2022-11-16T19:05:11.794Z,1.30
2022-11-16T19:07:38.162Z,2.15
2022-11-16T19:10:04.973Z,1.25
2022-11-16T19:12:31.351Z,1.95
2022-11-16T19:14:57.732Z,0.90
2022-11-16T19:17:24.827Z,1.50
2022-11-16T19:19:51.166Z,0.88
2022-11-16T19:22:18.179Z,1.23
2022-11-16T19:24:44.562Z,1.35
2022-11-16T19:27:12.246Z,1.50
2022-11-16T19:29:38.620Z,1.00
2022-11-16T19:32:05.160Z,1.13
2022-11-16T19:34:33.472Z,1.35
2022-11-16T19:37:00.071Z,1.35
2022-11-16T19:39:26.701Z,1.10
2022-11-16T19:41:53.041Z,1.30
2022-11-16T19:44:19.975Z,0.93
2022-11-16T19:46:46.464Z,1.42
2022-11-16T19:49:19.623Z,0.93
2022-11-16T19:51:46.410Z,1.00
2022-11-16T19:54:14.670Z,1.15
2022-11-16T19:56:41.695Z,0.88
2022-11-16T19:59:08.079Z,0.90
2022-11-16T20:01:34.532Z,1.13
2022-11-16T20:04:03.451Z,1.47
2022-11-16T20:06:33.011Z,1.08
2022-11-16T20:09:02.787Z,1.42
2022-11-16T20:11:36.261Z,1.67
2022-11-16T20:14:04.967Z,1.00
2022-11-16T20:16:38.365Z,1.60
2022-11-16T20:19:05.683Z,0.93
2022-11-16T20:21:37.847Z,0.88
2022-11-16T20:24:07.100Z,1.00
2022-11-16T20:26:34.789Z,1.02
2022-11-16T20:29:01.436Z,0.90
2022-11-16T20:31:32.304Z,1.23
2022-11-16T20:34:04.543Z,1.30
2022-11-16T20:36:32.938Z,0.90
2022-11-16T20:39:00.558Z,1.20
2022-11-16T20:41:29.150Z,0.87
2022-11-16T20:43:58.344Z,2.08
2022-11-16T20:46:27.438Z,1.05
2022-11-16T20:48:55.751Z,0.80
2022-11-16T20:51:22.519Z,1.08
2022-11-16T20:53:49.848Z,0.97
2022-11-16T20:56:19.039Z,1.20
2022-11-16T20:58:45.899Z,1.35
2022-11-16T21:01:17.583Z,1.38
2022-11-16T21:03:44.748Z,1.40
2022-11-16T21:06:12.600Z,1.20
2022-11-16T21:08:39.534Z,0.90
2022-11-16T21:11:18.322Z,1.25
2022-11-16T21:14:04.363Z,1.33
2022-11-16T21:16:31.384Z,0.80
2022-11-16T21:18:57.801Z,1.00
2022-11-16T21:21:25.227Z,1.58
2022-11-16T21:23:51.815Z,1.42
2022-11-16T21:26:20.741Z,1.10
2022-11-16T21:28:47.252Z,1.88
2022-11-16T21:31:16.219Z,1.30
2022-11-16T21:33:47.307Z,1.55
2022-11-16T21:36:24.697Z,1.40
2022-11-16T21:38:51.816Z,1.00
2022-11-16T21:41:19.775Z,1.35
2022-11-16T21:43:46.711Z,1.10
2022-11-16T21:46:16.163Z,1.20
2022-11-16T21:48:42.631Z,1.10
2022-11-16T21:51:15.143Z,1.25
2022-11-16T21:53:41.704Z,1.00
2022-11-16T21:56:12.881Z,1.20
2022-11-16T21:58:40.254Z,1.33
2022-11-16T22:01:07.174Z,1.30
2022-11-16T22:03:34.331Z,1.17
2022-11-16T22:06:22.099Z,0.93
2022-11-16T22:08:49.211Z,1.03
2022-11-16T22:11:16.350Z,1.20
2022-11-16T22:13:43.699Z,1.10
2022-11-16T22:16:12.195Z,1.58
2022-11-16T22:18:39.323Z,1.13
2022-11-16T22:21:06.223Z,0.97
2022-11-16T22:23:33.476Z,1.20
2022-11-16T22:26:08.180Z,1.63
2022-11-16T22:28:35.648Z,1.52
2022-11-16T22:31:11.604Z,1.23
2022-11-16T22:33:38.717Z,1.00
2022-11-16T22:36:08.203Z,1.38
2022-11-16T22:38:34.962Z,1.40
2022-11-16T22:41:01.510Z,1.63
2022-11-16T22:43:30.087Z,1.55
2022-11-16T22:46:04.903Z,1.37
2022-11-16T22:48:39.541Z,1.20
2022-11-16T22:51:11.951Z,1.60
2022-11-16T22:53:38.657Z,1.10
2022-11-16T22:56:07.466Z,1.00
2022-11-16T22:58:34.651Z,0.80
2022-11-16T23:01:01.552Z,1.20
2022-11-16T23:03:29.057Z,1.20
2022-11-16T23:05:55.417Z,1.95
2022-11-16T23:08:24.770Z,1.50
2022-11-16T23:11:37.358Z,1.07
2022-11-16T23:14:23.572Z,1.70
2022-11-16T23:16:50.025Z,1.10
2022-11-16T23:19:41.471Z,1.50
2022-11-16T23:22:32.397Z,1.50
2022-11-16T23:25:17.062Z,1.57
2022-11-16T23:28:07.848Z,1.20
2022-11-16T23:30:35.460Z,1.88
2022-11-16T23:33:02.566Z,1.35
2022-11-16T23:35:28.922Z,1.55
2022-11-16T23:37:56.373Z,2.33
2022-11-16T23:40:25.455Z,1.90
2022-11-16T23:43:11.962Z,1.92
2022-11-16T23:45:39.602Z,1.50
2022-11-16T23:48:07.420Z,2.08
2022-11-16T23:50:34.076Z,1.33
2022-11-16T23:53:01.638Z,1.67
2022-11-16T23:55:28.222Z,1.80
2022-11-16T23:57:54.765Z,1.60
